sensor_id;sensor_type;location;lat;lon;timestamp;temperature;humidity
15543;DHT22;7873;52.230;12.856;2024-03-22T00:01:43;24.70;38.80
15543;DHT22;7873;52.230;12.856;2024-03-22T00:04:10;24.70;38.80
15543;DHT22;7873;52.230;12.856;2024-03-22T00:06:35;24.70;38.90
15543;DHT22;7873;52.230;12.856;2024-03-22T00:09:02;24.70;38.80
15543;DHT22;7873;52.230;12.856;2024-03-22T00:11:28;24.60;38.80
15543;DHT22;7873;52.230;12.856;2024-03-22T00:13:54;24.60;38.90
15543;DHT22;7873;52.230;12.856;2024-03-22T00:16:20;24.60;39.00
15543;DHT22;7873;52.230;12.856;2024-03-22T00:18:47;24.60;39.00
15543;DHT22;7873;52.230;12.856;2024-03-22T00:21:13;24.60;39.10
15543;DHT22;7873;52.230;12.856;2024-03-22T00:23:39;24.50;39.00
15543;DHT22;7873;52.230;12.856;2024-03-22T00:26:05;24.50;39.10
15543;DHT22;7873;52.230;12.856;2024-03-22T00:28:32;24.50;39.10
15543;DHT22;7873;52.230;12.856;2024-03-22T00:30:57;24.50;39.10
15543;DHT22;7873;52.230;12.856;2024-03-22T00:33:24;24.50;39.20
15543;DHT22;7873;52.230;12.856;2024-03-22T00:35:50;24.40;39.20
15543;DHT22;7873;52.230;12.856;2024-03-22T00:38:17;24.40;39.20
15543;DHT22;7873;52.230;12.856;2024-03-22T00:40:42;24.40;39.30
15543;DHT22;7873;52.230;12.856;2024-03-22T00:43:09;24.40;39.30
15543;DHT22;7873;52.230;12.856;2024-03-22T00:45:35;24.40;39.30
15543;DHT22;7873;52.230;12.856;2024-03-22T00:48:01;24.30;39.30
15543;DHT22;7873;52.230;12.856;2024-03-22T00:50:27;24.30;39.30
15543;DHT22;7873;52.230;12.856;2024-03-22T00:52:55;24.30;39.30
15543;DHT22;7873;52.230;12.856;2024-03-22T00:55:21;24.30;39.30
15543;DHT22;7873;52.230;12.856;2024-03-22T00:57:48;24.30;39.40
15543;DHT22;7873;52.230;12.856;2024-03-22T01:00:14;24.20;39.30
15543;DHT22;7873;52.230;12.856;2024-03-22T01:02:41;24.30;39.50
15543;DHT22;7873;52.230;12.856;2024-03-22T01:05:07;24.20;39.40
15543;DHT22;7873;52.230;12.856;2024-03-22T01:07:35;24.20;39.50
15543;DHT22;7873;52.230;12.856;2024-03-22T01:10:02;24.20;39.50
15543;DHT22;7873;52.230;12.856;2024-03-22T01:12:28;24.20;39.50
15543;DHT22;7873;52.230;12.856;2024-03-22T01:14:54;24.10;39.50
15543;DHT22;7873;52.230;12.856;2024-03-22T01:17:20;24.10;39.60
15543;DHT22;7873;52.230;12.856;2024-03-22T01:19:46;24.10;39.60
15543;DHT22;7873;52.230;12.856;2024-03-22T01:22:12;24.10;39.60
15543;DHT22;7873;52.230;12.856;2024-03-22T01:24:38;24.10;39.60
15543;DHT22;7873;52.230;12.856;2024-03-22T01:27:06;24.10;39.60
15543;DHT22;7873;52.230;12.856;2024-03-22T01:29:31;24.10;39.60
15543;DHT22;7873;52.230;12.856;2024-03-22T01:31:58;24.00;39.50
15543;DHT22;7873;52.230;12.856;2024-03-22T01:34:24;24.00;39.50
15543;DHT22;7873;52.230;12.856;2024-03-22T01:36:51;24.00;39.70
15543;DHT22;7873;52.230;12.856;2024-03-22T01:39:18;24.00;39.70
15543;DHT22;7873;52.230;12.856;2024-03-22T01:41:46;24.00;39.70
15543;DHT22;7873;52.230;12.856;2024-03-22T01:44:13;23.90;39.70
15543;DHT22;7873;52.230;12.856;2024-03-22T01:46:40;23.90;39.70
15543;DHT22;7873;52.230;12.856;2024-03-22T01:49:05;23.90;39.70
15543;DHT22;7873;52.230;12.856;2024-03-22T01:51:32;23.90;39.80
15543;DHT22;7873;52.230;12.856;2024-03-22T01:53:58;23.90;39.80
15543;DHT22;7873;52.230;12.856;2024-03-22T01:56:27;23.90;39.80
15543;DHT22;7873;52.230;12.856;2024-03-22T01:58:53;23.90;39.80
15543;DHT22;7873;52.230;12.856;2024-03-22T02:01:22;23.90;40.50
15543;DHT22;7873;52.230;12.856;2024-03-22T02:03:49;23.80;39.80
15543;DHT22;7873;52.230;12.856;2024-03-22T02:06:15;23.80;39.80
15543;DHT22;7873;52.230;12.856;2024-03-22T02:08:41;23.80;39.80
15543;DHT22;7873;52.230;12.856;2024-03-22T02:11:09;23.80;39.90
15543;DHT22;7873;52.230;12.856;2024-03-22T02:13:34;23.80;39.90
15543;DHT22;7873;52.230;12.856;2024-03-22T02:16:02;23.70;39.80
15543;DHT22;7873;52.230;12.856;2024-03-22T02:18:29;23.70;39.80
15543;DHT22;7873;52.230;12.856;2024-03-22T02:20:56;23.70;39.80
15543;DHT22;7873;52.230;12.856;2024-03-22T02:23:26;23.70;39.90
15543;DHT22;7873;52.230;12.856;2024-03-22T02:25:55;23.70;39.90
15543;DHT22;7873;52.230;12.856;2024-03-22T02:28:20;23.70;39.90
15543;DHT22;7873;52.230;12.856;2024-03-22T02:30:47;23.70;40.00
15543;DHT22;7873;52.230;12.856;2024-03-22T02:33:12;23.70;40.00
15543;DHT22;7873;52.230;12.856;2024-03-22T02:35:39;23.60;40.00
15543;DHT22;7873;52.230;12.856;2024-03-22T02:38:04;23.60;39.90
15543;DHT22;7873;52.230;12.856;2024-03-22T02:40:32;23.60;40.00
15543;DHT22;7873;52.230;12.856;2024-03-22T02:42:58;23.60;40.00
15543;DHT22;7873;52.230;12.856;2024-03-22T02:45:24;23.60;40.00
15543;DHT22;7873;52.230;12.856;2024-03-22T02:47:50;23.60;40.00
15543;DHT22;7873;52.230;12.856;2024-03-22T02:50:17;23.60;40.00
15543;DHT22;7873;52.230;12.856;2024-03-22T02:52:42;23.60;40.00
15543;DHT22;7873;52.230;12.856;2024-03-22T02:55:09;23.50;40.00
15543;DHT22;7873;52.230;12.856;2024-03-22T02:57:35;23.50;40.10
15543;DHT22;7873;52.230;12.856;2024-03-22T03:00:02;23.50;40.10
15543;DHT22;7873;52.230;12.856;2024-03-22T03:02:28;23.50;40.20
15543;DHT22;7873;52.230;12.856;2024-03-22T03:04:55;23.50;40.10
15543;DHT22;7873;52.230;12.856;2024-03-22T03:07:20;23.50;40.20
15543;DHT22;7873;52.230;12.856;2024-03-22T03:09:47;23.50;40.90
15543;DHT22;7873;52.230;12.856;2024-03-22T03:12:12;23.50;40.10
15543;DHT22;7873;52.230;12.856;2024-03-22T03:14:40;23.40;40.20
15543;DHT22;7873;52.230;12.856;2024-03-22T03:17:06;23.40;40.20
15543;DHT22;7873;52.230;12.856;2024-03-22T03:19:32;23.40;40.10
15543;DHT22;7873;52.230;12.856;2024-03-22T03:21:58;23.40;40.10
15543;DHT22;7873;52.230;12.856;2024-03-22T03:24:24;23.40;40.10
15543;DHT22;7873;52.230;12.856;2024-03-22T03:26:50;23.40;40.20
15543;DHT22;7873;52.230;12.856;2024-03-22T03:29:16;23.40;40.10
15543;DHT22;7873;52.230;12.856;2024-03-22T03:31:43;23.40;40.20
15543;DHT22;7873;52.230;12.856;2024-03-22T03:34:10;23.30;40.20
15543;DHT22;7873;52.230;12.856;2024-03-22T03:36:35;23.40;40.90
15543;DHT22;7873;52.230;12.856;2024-03-22T03:39:02;23.30;40.20
15543;DHT22;7873;52.230;12.856;2024-03-22T03:41:27;23.40;40.20
15543;DHT22;7873;52.230;12.856;2024-03-22T03:43:54;23.30;40.20
15543;DHT22;7873;52.230;12.856;2024-03-22T03:46:19;23.30;41.00
15543;DHT22;7873;52.230;12.856;2024-03-22T03:48:47;23.30;40.20
15543;DHT22;7873;52.230;12.856;2024-03-22T03:51:13;23.20;40.30
15543;DHT22;7873;52.230;12.856;2024-03-22T03:53:39;23.20;40.30
15543;DHT22;7873;52.230;12.856;2024-03-22T03:56:05;23.20;40.30
15543;DHT22;7873;52.230;12.856;2024-03-22T03:58:31;23.20;40.30
15543;DHT22;7873;52.230;12.856;2024-03-22T04:00:58;23.20;40.30
15543;DHT22;7873;52.230;12.856;2024-03-22T04:03:23;23.20;40.30
15543;DHT22;7873;52.230;12.856;2024-03-22T04:05:57;23.20;40.30
15543;DHT22;7873;52.230;12.856;2024-03-22T04:08:22;23.20;40.30
15543;DHT22;7873;52.230;12.856;2024-03-22T04:10:51;23.20;40.30
15543;DHT22;7873;52.230;12.856;2024-03-22T04:13:17;23.20;40.30
15543;DHT22;7873;52.230;12.856;2024-03-22T04:15:43;23.10;40.30
15543;DHT22;7873;52.230;12.856;2024-03-22T04:18:09;23.10;40.30
15543;DHT22;7873;52.230;12.856;2024-03-22T04:20:35;23.10;40.30
15543;DHT22;7873;52.230;12.856;2024-03-22T04:23:02;23.10;40.30
15543;DHT22;7873;52.230;12.856;2024-03-22T04:25:29;23.10;40.30
15543;DHT22;7873;52.230;12.856;2024-03-22T04:27:54;23.10;40.30
15543;DHT22;7873;52.230;12.856;2024-03-22T04:30:21;23.10;40.30
15543;DHT22;7873;52.230;12.856;2024-03-22T04:32:46;23.10;40.30
15543;DHT22;7873;52.230;12.856;2024-03-22T04:35:13;23.00;40.30
15543;DHT22;7873;52.230;12.856;2024-03-22T04:37:38;23.10;41.10
15543;DHT22;7873;52.230;12.856;2024-03-22T04:40:07;23.10;40.50
15543;DHT22;7873;52.230;12.856;2024-03-22T04:42:34;23.10;41.00
15543;DHT22;7873;52.230;12.856;2024-03-22T04:45:01;23.10;40.50
15543;DHT22;7873;52.230;12.856;2024-03-22T04:47:28;23.20;40.40
15543;DHT22;7873;52.230;12.856;2024-03-22T04:49:53;23.30;40.60
15543;DHT22;7873;52.230;12.856;2024-03-22T04:52:20;23.30;40.40
15543;DHT22;7873;52.230;12.856;2024-03-22T04:54:46;23.40;40.40
15543;DHT22;7873;52.230;12.856;2024-03-22T04:57:14;23.40;40.50
15543;DHT22;7873;52.230;12.856;2024-03-22T04:59:40;23.40;40.50
15543;DHT22;7873;52.230;12.856;2024-03-22T05:02:06;23.40;40.50
15543;DHT22;7873;52.230;12.856;2024-03-22T05:04:32;23.40;40.50
15543;DHT22;7873;52.230;12.856;2024-03-22T05:06:59;23.40;40.40
15543;DHT22;7873;52.230;12.856;2024-03-22T05:09:24;23.40;40.50
15543;DHT22;7873;52.230;12.856;2024-03-22T05:11:51;23.40;40.50
15543;DHT22;7873;52.230;12.856;2024-03-22T05:14:18;23.40;40.50
15543;DHT22;7873;52.230;12.856;2024-03-22T05:16:46;23.50;40.50
15543;DHT22;7873;52.230;12.856;2024-03-22T05:19:11;23.40;40.50
15543;DHT22;7873;52.230;12.856;2024-03-22T05:21:38;23.40;40.60
15543;DHT22;7873;52.230;12.856;2024-03-22T05:24:03;23.40;40.70
15543;DHT22;7873;52.230;12.856;2024-03-22T05:26:30;23.30;40.70
15543;DHT22;7873;52.230;12.856;2024-03-22T05:29:01;23.30;40.40
15543;DHT22;7873;52.230;12.856;2024-03-22T05:31:29;23.40;40.00
15543;DHT22;7873;52.230;12.856;2024-03-22T05:33:55;23.30;40.00
15543;DHT22;7873;52.230;12.856;2024-03-22T05:36:22;23.40;40.40
15543;DHT22;7873;52.230;12.856;2024-03-22T05:38:47;23.30;39.50
15543;DHT22;7873;52.230;12.856;2024-03-22T05:41:14;23.20;39.50
15543;DHT22;7873;52.230;12.856;2024-03-22T05:43:40;23.20;39.00
15543;DHT22;7873;52.230;12.856;2024-03-22T05:46:06;23.20;39.00
15543;DHT22;7873;52.230;12.856;2024-03-22T05:48:33;23.10;39.00
15543;DHT22;7873;52.230;12.856;2024-03-22T05:50:59;23.10;38.80
15543;DHT22;7873;52.230;12.856;2024-03-22T05:53:25;23.10;39.10
15543;DHT22;7873;52.230;12.856;2024-03-22T05:55:51;23.10;38.80
15543;DHT22;7873;52.230;12.856;2024-03-22T05:58:17;23.10;38.50
15543;DHT22;7873;52.230;12.856;2024-03-22T06:00:44;23.10;39.30
15543;DHT22;7873;52.230;12.856;2024-03-22T06:03:10;23.10;39.00
15543;DHT22;7873;52.230;12.856;2024-03-22T06:05:38;23.00;38.90
15543;DHT22;7873;52.230;12.856;2024-03-22T06:08:04;23.10;39.20
15543;DHT22;7873;52.230;12.856;2024-03-22T06:10:31;23.00;39.00
15543;DHT22;7873;52.230;12.856;2024-03-22T06:12:57;23.00;39.00
15543;DHT22;7873;52.230;12.856;2024-03-22T06:15:23;23.00;38.80
15543;DHT22;7873;52.230;12.856;2024-03-22T06:17:49;22.90;38.60
15543;DHT22;7873;52.230;12.856;2024-03-22T06:20:16;22.80;39.10
15543;DHT22;7873;52.230;12.856;2024-03-22T06:22:43;22.80;39.00
15543;DHT22;7873;52.230;12.856;2024-03-22T06:25:09;22.80;39.00
15543;DHT22;7873;52.230;12.856;2024-03-22T06:27:35;22.80;39.00
15543;DHT22;7873;52.230;12.856;2024-03-22T06:30:01;22.90;39.00
15543;DHT22;7873;52.230;12.856;2024-03-22T06:32:28;22.90;39.40
15543;DHT22;7873;52.230;12.856;2024-03-22T06:34:55;23.00;39.10
15543;DHT22;7873;52.230;12.856;2024-03-22T06:37:20;23.10;39.20
15543;DHT22;7873;52.230;12.856;2024-03-22T06:39:48;23.10;39.20
15543;DHT22;7873;52.230;12.856;2024-03-22T06:42:14;23.30;39.10
15543;DHT22;7873;52.230;12.856;2024-03-22T06:44:40;23.50;39.00
15543;DHT22;7873;52.230;12.856;2024-03-22T06:47:06;23.60;38.30
15543;DHT22;7873;52.230;12.856;2024-03-22T06:49:32;23.90;38.30
15543;DHT22;7873;52.230;12.856;2024-03-22T06:51:58;24.30;37.60
15543;DHT22;7873;52.230;12.856;2024-03-22T06:54:24;24.50;37.10
15543;DHT22;7873;52.230;12.856;2024-03-22T06:56:52;24.60;36.90
15543;DHT22;7873;52.230;12.856;2024-03-22T06:59:19;24.80;36.30
15543;DHT22;7873;52.230;12.856;2024-03-22T07:01:44;25.10;36.60
15543;DHT22;7873;52.230;12.856;2024-03-22T07:04:11;24.90;34.80
15543;DHT22;7873;52.230;12.856;2024-03-22T07:06:36;24.60;34.50
15543;DHT22;7873;52.230;12.856;2024-03-22T07:09:03;24.30;34.80
15543;DHT22;7873;52.230;12.856;2024-03-22T07:11:29;24.40;35.70
15543;DHT22;7873;52.230;12.856;2024-03-22T07:13:56;24.70;35.90
15543;DHT22;7873;52.230;12.856;2024-03-22T07:16:22;25.00;35.30
15543;DHT22;7873;52.230;12.856;2024-03-22T07:18:48;25.30;35.00
15543;DHT22;7873;52.230;12.856;2024-03-22T07:21:14;25.50;34.70
15543;DHT22;7873;52.230;12.856;2024-03-22T07:23:41;25.60;34.70
15543;DHT22;7873;52.230;12.856;2024-03-22T07:26:06;25.70;34.70
15543;DHT22;7873;52.230;12.856;2024-03-22T07:28:33;25.70;34.70
15543;DHT22;7873;52.230;12.856;2024-03-22T07:31:00;25.80;34.50
15543;DHT22;7873;52.230;12.856;2024-03-22T07:33:26;26.00;34.40
15543;DHT22;7873;52.230;12.856;2024-03-22T07:35:52;26.10;34.10
15543;DHT22;7873;52.230;12.856;2024-03-22T07:38:19;26.20;34.20
15543;DHT22;7873;52.230;12.856;2024-03-22T07:40:45;26.20;34.00
15543;DHT22;7873;52.230;12.856;2024-03-22T07:43:11;26.30;34.20
15543;DHT22;7873;52.230;12.856;2024-03-22T07:45:38;26.30;34.10
15543;DHT22;7873;52.230;12.856;2024-03-22T07:48:06;26.30;33.80
15543;DHT22;7873;52.230;12.856;2024-03-22T07:50:32;26.40;33.50
15543;DHT22;7873;52.230;12.856;2024-03-22T07:52:58;26.40;33.50
15543;DHT22;7873;52.230;12.856;2024-03-22T07:55:25;26.40;33.70
15543;DHT22;7873;52.230;12.856;2024-03-22T07:57:51;26.60;33.90
15543;DHT22;7873;52.230;12.856;2024-03-22T08:00:17;26.80;33.80
15543;DHT22;7873;52.230;12.856;2024-03-22T08:02:44;27.00;34.00
15543;DHT22;7873;52.230;12.856;2024-03-22T08:05:11;27.10;33.90
15543;DHT22;7873;52.230;12.856;2024-03-22T08:07:38;27.30;34.30
15543;DHT22;7873;52.230;12.856;2024-03-22T08:10:04;27.30;34.00
15543;DHT22;7873;52.230;12.856;2024-03-22T08:12:31;27.30;34.00
15543;DHT22;7873;52.230;12.856;2024-03-22T08:14:56;27.30;33.90
15543;DHT22;7873;52.230;12.856;2024-03-22T08:17:23;27.30;34.10
15543;DHT22;7873;52.230;12.856;2024-03-22T08:19:48;27.40;34.30
15543;DHT22;7873;52.230;12.856;2024-03-22T08:22:16;27.30;33.90
15543;DHT22;7873;52.230;12.856;2024-03-22T08:24:42;27.30;34.00
15543;DHT22;7873;52.230;12.856;2024-03-22T08:27:08;27.30;34.40
15543;DHT22;7873;52.230;12.856;2024-03-22T08:29:34;27.20;34.40
15543;DHT22;7873;52.230;12.856;2024-03-22T08:32:00;27.20;34.40
15543;DHT22;7873;52.230;12.856;2024-03-22T08:34:29;27.20;34.20
15543;DHT22;7873;52.230;12.856;2024-03-22T08:36:57;27.20;34.40
15543;DHT22;7873;52.230;12.856;2024-03-22T08:39:24;27.20;34.70
15543;DHT22;7873;52.230;12.856;2024-03-22T08:41:51;27.20;34.80
15543;DHT22;7873;52.230;12.856;2024-03-22T08:44:16;27.20;34.70
15543;DHT22;7873;52.230;12.856;2024-03-22T08:46:43;27.20;34.80
15543;DHT22;7873;52.230;12.856;2024-03-22T08:49:09;27.20;34.90
15543;DHT22;7873;52.230;12.856;2024-03-22T08:51:37;27.10;35.00
15543;DHT22;7873;52.230;12.856;2024-03-22T08:54:03;27.10;35.30
15543;DHT22;7873;52.230;12.856;2024-03-22T08:56:31;27.10;34.70
15543;DHT22;7873;52.230;12.856;2024-03-22T08:58:57;27.00;34.70
15543;DHT22;7873;52.230;12.856;2024-03-22T09:01:24;26.90;35.00
15543;DHT22;7873;52.230;12.856;2024-03-22T09:03:50;26.80;33.30
15543;DHT22;7873;52.230;12.856;2024-03-22T09:06:16;26.70;33.90
15543;DHT22;7873;52.230;12.856;2024-03-22T09:08:42;26.60;34.40
15543;DHT22;7873;52.230;12.856;2024-03-22T09:11:08;26.60;34.60
15543;DHT22;7873;52.230;12.856;2024-03-22T09:13:35;26.60;34.60
15543;DHT22;7873;52.230;12.856;2024-03-22T09:16:02;26.60;34.60
15543;DHT22;7873;52.230;12.856;2024-03-22T09:18:27;26.60;34.60
15543;DHT22;7873;52.230;12.856;2024-03-22T09:20:54;26.70;34.50
15543;DHT22;7873;52.230;12.856;2024-03-22T09:23:21;26.80;34.40
15543;DHT22;7873;52.230;12.856;2024-03-22T09:25:47;26.90;34.30
15543;DHT22;7873;52.230;12.856;2024-03-22T09:28:13;26.90;34.10
15543;DHT22;7873;52.230;12.856;2024-03-22T09:30:41;27.10;34.10
15543;DHT22;7873;52.230;12.856;2024-03-22T09:33:08;27.10;33.90
15543;DHT22;7873;52.230;12.856;2024-03-22T09:35:36;27.20;33.80
15543;DHT22;7873;52.230;12.856;2024-03-22T09:38:01;27.30;34.50
15543;DHT22;7873;52.230;12.856;2024-03-22T09:40:28;27.30;33.70
15543;DHT22;7873;52.230;12.856;2024-03-22T09:42:54;27.30;33.50
15543;DHT22;7873;52.230;12.856;2024-03-22T09:45:27;27.30;33.60
15543;DHT22;7873;52.230;12.856;2024-03-22T09:47:55;27.30;33.70
15543;DHT22;7873;52.230;12.856;2024-03-22T09:50:23;27.30;33.50
15543;DHT22;7873;52.230;12.856;2024-03-22T09:52:48;26.70;32.80
15543;DHT22;7873;52.230;12.856;2024-03-22T09:55:18;26.40;33.10
15543;DHT22;7873;52.230;12.856;2024-03-22T09:57:47;26.30;33.50
15543;DHT22;7873;52.230;12.856;2024-03-22T10:00:16;26.40;33.80
15543;DHT22;7873;52.230;12.856;2024-03-22T10:02:44;26.40;33.50
15543;DHT22;7873;52.230;12.856;2024-03-22T10:05:13;26.40;33.50
15543;DHT22;7873;52.230;12.856;2024-03-22T10:07:39;26.30;34.10
15543;DHT22;7873;52.230;12.856;2024-03-22T10:10:06;26.50;34.30
15543;DHT22;7873;52.230;12.856;2024-03-22T10:12:32;26.90;33.80
15543;DHT22;7873;52.230;12.856;2024-03-22T10:14:59;27.10;34.00
15543;DHT22;7873;52.230;12.856;2024-03-22T10:17:26;27.40;32.70
15543;DHT22;7873;52.230;12.856;2024-03-22T10:19:52;27.40;32.30
15543;DHT22;7873;52.230;12.856;2024-03-22T10:22:19;26.90;32.30
15543;DHT22;7873;52.230;12.856;2024-03-22T10:24:46;26.50;33.00
15543;DHT22;7873;52.230;12.856;2024-03-22T10:27:11;26.20;33.30
15543;DHT22;7873;52.230;12.856;2024-03-22T10:29:39;26.20;34.00
15543;DHT22;7873;52.230;12.856;2024-03-22T10:32:05;26.40;34.00
15543;DHT22;7873;52.230;12.856;2024-03-22T10:34:32;26.40;33.80
15543;DHT22;7873;52.230;12.856;2024-03-22T10:36:58;26.60;33.80
15543;DHT22;7873;52.230;12.856;2024-03-22T10:39:27;26.80;33.80
15543;DHT22;7873;52.230;12.856;2024-03-22T10:41:53;27.00;33.70
15543;DHT22;7873;52.230;12.856;2024-03-22T10:44:20;27.20;33.40
15543;DHT22;7873;52.230;12.856;2024-03-22T10:46:47;27.40;34.00
15543;DHT22;7873;52.230;12.856;2024-03-22T10:49:17;27.30;32.90
15543;DHT22;7873;52.230;12.856;2024-03-22T10:51:44;27.20;33.50
15543;DHT22;7873;52.230;12.856;2024-03-22T10:54:17;27.40;33.30
15543;DHT22;7873;52.230;12.856;2024-03-22T10:56:47;27.70;33.30
15543;DHT22;7873;52.230;12.856;2024-03-22T10:59:18;27.90;32.80
15543;DHT22;7873;52.230;12.856;2024-03-22T11:01:44;28.00;32.70
15543;DHT22;7873;52.230;12.856;2024-03-22T11:04:11;27.90;32.60
15543;DHT22;7873;52.230;12.856;2024-03-22T11:06:38;27.90;32.30
15543;DHT22;7873;52.230;12.856;2024-03-22T11:09:04;28.00;32.90
15543;DHT22;7873;52.230;12.856;2024-03-22T11:11:30;28.10;33.30
15543;DHT22;7873;52.230;12.856;2024-03-22T11:14:03;28.20;33.40
15543;DHT22;7873;52.230;12.856;2024-03-22T11:16:30;28.40;33.80
15543;DHT22;7873;52.230;12.856;2024-03-22T11:18:55;28.60;33.70
15543;DHT22;7873;52.230;12.856;2024-03-22T11:21:22;28.70;33.90
15543;DHT22;7873;52.230;12.856;2024-03-22T11:23:48;28.80;33.90
15543;DHT22;7873;52.230;12.856;2024-03-22T11:26:15;28.90;33.70
15543;DHT22;7873;52.230;12.856;2024-03-22T11:28:41;29.00;32.80
15543;DHT22;7873;52.230;12.856;2024-03-22T11:31:09;29.10;32.80
15543;DHT22;7873;52.230;12.856;2024-03-22T11:33:35;29.20;32.80
15543;DHT22;7873;52.230;12.856;2024-03-22T11:36:03;29.20;32.80
15543;DHT22;7873;52.230;12.856;2024-03-22T11:38:29;29.00;32.00
15543;DHT22;7873;52.230;12.856;2024-03-22T11:40:57;28.90;32.80
15543;DHT22;7873;52.230;12.856;2024-03-22T11:43:25;28.70;32.70
15543;DHT22;7873;52.230;12.856;2024-03-22T11:45:53;28.60;32.60
15543;DHT22;7873;52.230;12.856;2024-03-22T11:48:20;28.50;32.10
15543;DHT22;7873;52.230;12.856;2024-03-22T11:50:47;28.30;31.90
15543;DHT22;7873;52.230;12.856;2024-03-22T11:53:12;28.10;32.80
15543;DHT22;7873;52.230;12.856;2024-03-22T11:55:39;28.20;32.90
15543;DHT22;7873;52.230;12.856;2024-03-22T11:58:08;28.30;33.20
15543;DHT22;7873;52.230;12.856;2024-03-22T12:00:35;28.30;32.80
15543;DHT22;7873;52.230;12.856;2024-03-22T12:03:01;28.00;33.20
15543;DHT22;7873;52.230;12.856;2024-03-22T12:05:32;27.90;33.60
15543;DHT22;7873;52.230;12.856;2024-03-22T12:07:58;27.70;33.70
15543;DHT22;7873;52.230;12.856;2024-03-22T12:10:24;27.60;34.70
15543;DHT22;7873;52.230;12.856;2024-03-22T12:12:50;27.60;34.10
15543;DHT22;7873;52.230;12.856;2024-03-22T12:15:19;27.60;34.10
15543;DHT22;7873;52.230;12.856;2024-03-22T12:17:44;27.50;34.10
15543;DHT22;7873;52.230;12.856;2024-03-22T12:20:11;27.50;34.10
15543;DHT22;7873;52.230;12.856;2024-03-22T12:22:38;27.50;34.20
15543;DHT22;7873;52.230;12.856;2024-03-22T12:25:04;27.40;34.10
15543;DHT22;7873;52.230;12.856;2024-03-22T12:27:31;27.40;34.20
15543;DHT22;7873;52.230;12.856;2024-03-22T12:29:57;27.30;34.30
15543;DHT22;7873;52.230;12.856;2024-03-22T12:32:24;27.30;34.40
15543;DHT22;7873;52.230;12.856;2024-03-22T12:34:52;27.30;34.50
15543;DHT22;7873;52.230;12.856;2024-03-22T12:37:17;27.20;34.50
15543;DHT22;7873;52.230;12.856;2024-03-22T12:39:45;27.20;34.70
15543;DHT22;7873;52.230;12.856;2024-03-22T12:42:12;27.10;34.70
15543;DHT22;7873;52.230;12.856;2024-03-22T12:44:39;26.80;35.90
15543;DHT22;7873;52.230;12.856;2024-03-22T12:47:04;26.90;36.10
15543;DHT22;7873;52.230;12.856;2024-03-22T12:49:31;27.10;35.70
15543;DHT22;7873;52.230;12.856;2024-03-22T12:51:57;27.20;35.70
15543;DHT22;7873;52.230;12.856;2024-03-22T12:54:23;27.20;35.70
15543;DHT22;7873;52.230;12.856;2024-03-22T12:56:52;27.20;35.50
15543;DHT22;7873;52.230;12.856;2024-03-22T12:59:18;27.20;35.60
15543;DHT22;7873;52.230;12.856;2024-03-22T13:01:44;27.30;35.60
15543;DHT22;7873;52.230;12.856;2024-03-22T13:04:10;27.20;35.70
15543;DHT22;7873;52.230;12.856;2024-03-22T13:06:36;27.30;35.60
15543;DHT22;7873;52.230;12.856;2024-03-22T13:09:03;27.30;35.60
15543;DHT22;7873;52.230;12.856;2024-03-22T13:11:29;27.30;35.50
15543;DHT22;7873;52.230;12.856;2024-03-22T13:13:57;27.40;35.50
15543;DHT22;7873;52.230;12.856;2024-03-22T13:16:24;27.50;35.30
15543;DHT22;7873;52.230;12.856;2024-03-22T13:18:50;27.60;35.10
15543;DHT22;7873;52.230;12.856;2024-03-22T13:21:17;27.80;34.80
15543;DHT22;7873;52.230;12.856;2024-03-22T13:23:44;27.90;34.70
15543;DHT22;7873;52.230;12.856;2024-03-22T13:26:10;27.90;34.70
15543;DHT22;7873;52.230;12.856;2024-03-22T13:28:36;28.10;34.60
15543;DHT22;7873;52.230;12.856;2024-03-22T13:31:03;28.10;34.40
15543;DHT22;7873;52.230;12.856;2024-03-22T13:33:31;28.10;34.30
15543;DHT22;7873;52.230;12.856;2024-03-22T13:35:58;28.20;34.20
15543;DHT22;7873;52.230;12.856;2024-03-22T13:38:24;28.20;34.10
15543;DHT22;7873;52.230;12.856;2024-03-22T13:40:53;28.30;34.20
15543;DHT22;7873;52.230;12.856;2024-03-22T13:43:20;28.20;34.20
15543;DHT22;7873;52.230;12.856;2024-03-22T13:45:45;28.20;34.10
15543;DHT22;7873;52.230;12.856;2024-03-22T13:48:15;28.20;34.20
15543;DHT22;7873;52.230;12.856;2024-03-22T13:50:41;28.20;34.30
15543;DHT22;7873;52.230;12.856;2024-03-22T13:53:07;28.20;34.10
15543;DHT22;7873;52.230;12.856;2024-03-22T13:55:33;28.20;34.20
15543;DHT22;7873;52.230;12.856;2024-03-22T13:58:00;28.00;34.30
15543;DHT22;7873;52.230;12.856;2024-03-22T14:00:26;27.90;34.60
15543;DHT22;7873;52.230;12.856;2024-03-22T14:02:53;27.80;34.80
15543;DHT22;7873;52.230;12.856;2024-03-22T14:05:22;27.70;35.30
15543;DHT22;7873;52.230;12.856;2024-03-22T14:07:49;27.60;35.20
15543;DHT22;7873;52.230;12.856;2024-03-22T14:10:15;27.60;35.40
15543;DHT22;7873;52.230;12.856;2024-03-22T14:12:41;27.50;36.20
15543;DHT22;7873;52.230;12.856;2024-03-22T14:15:08;27.70;35.70
15543;DHT22;7873;52.230;12.856;2024-03-22T14:17:35;27.80;35.30
15543;DHT22;7873;52.230;12.856;2024-03-22T14:20:00;27.90;35.40
15543;DHT22;7873;52.230;12.856;2024-03-22T14:22:32;28.10;35.90
15543;DHT22;7873;52.230;12.856;2024-03-22T14:24:58;28.10;35.30
15543;DHT22;7873;52.230;12.856;2024-03-22T14:27:24;28.20;35.40
15543;DHT22;7873;52.230;12.856;2024-03-22T14:29:50;28.30;34.70
15543;DHT22;7873;52.230;12.856;2024-03-22T14:32:17;28.40;35.00
15543;DHT22;7873;52.230;12.856;2024-03-22T14:34:42;28.50;35.20
15543;DHT22;7873;52.230;12.856;2024-03-22T14:37:09;28.80;34.90
15543;DHT22;7873;52.230;12.856;2024-03-22T14:39:36;28.90;34.50
15543;DHT22;7873;52.230;12.856;2024-03-22T14:42:02;29.00;35.10
15543;DHT22;7873;52.230;12.856;2024-03-22T14:44:28;28.90;34.30
15543;DHT22;7873;52.230;12.856;2024-03-22T14:46:54;28.70;34.90
15543;DHT22;7873;52.230;12.856;2024-03-22T14:49:20;28.80;34.70
15543;DHT22;7873;52.230;12.856;2024-03-22T14:51:46;29.00;35.20
15543;DHT22;7873;52.230;12.856;2024-03-22T14:54:12;29.00;34.00
15543;DHT22;7873;52.230;12.856;2024-03-22T14:56:40;28.70;34.80
15543;DHT22;7873;52.230;12.856;2024-03-22T14:59:06;28.30;35.40
15543;DHT22;7873;52.230;12.856;2024-03-22T15:01:32;28.00;35.60
15543;DHT22;7873;52.230;12.856;2024-03-22T15:03:58;27.90;36.00
15543;DHT22;7873;52.230;12.856;2024-03-22T15:06:24;27.70;36.20
15543;DHT22;7873;52.230;12.856;2024-03-22T15:08:51;27.60;36.50
15543;DHT22;7873;52.230;12.856;2024-03-22T15:11:16;27.50;36.60
15543;DHT22;7873;52.230;12.856;2024-03-22T15:13:44;27.50;36.50
15543;DHT22;7873;52.230;12.856;2024-03-22T15:16:09;27.50;36.70
15543;DHT22;7873;52.230;12.856;2024-03-22T15:18:36;27.70;36.40
15543;DHT22;7873;52.230;12.856;2024-03-22T15:21:03;27.90;35.60
15543;DHT22;7873;52.230;12.856;2024-03-22T15:23:29;27.90;36.10
15543;DHT22;7873;52.230;12.856;2024-03-22T15:25:55;27.80;36.10